sensor_id;sensor_type;location;lat;lon;timestamp;P1;durP1;ratioP1;P2;durP2;ratioP2
46751;SDS011;32497;48.936;9.270;2023-04-20T00:04:50;7.20;;;2.40;;
46751;SDS011;32497;48.936;9.270;2023-04-20T00:09:53;3.57;;;2.13;;
46751;SDS011;32497;48.936;9.270;2023-04-20T00:14:54;2.77;;;2.00;;
46751;SDS011;32497;48.936;9.270;2023-04-20T00:19:55;3.80;;;2.07;;
46751;SDS011;32497;48.936;9.270;2023-04-20T00:24:57;4.03;;;2.10;;
46751;SDS011;32497;48.936;9.270;2023-04-20T00:29:58;4.67;;;2.30;;
46751;SDS011;32497;48.936;9.270;2023-04-20T00:34:59;6.50;;;2.20;;
46751;SDS011;32497;48.936;9.270;2023-04-20T00:40:02;5.13;;;2.60;;
46751;SDS011;32497;48.936;9.270;2023-04-20T00:45:05;4.20;;;2.10;;
46751;SDS011;32497;48.936;9.270;2023-04-20T00:50:07;4.27;;;2.20;;
46751;SDS011;32497;48.936;9.270;2023-04-20T00:55:10;4.67;;;2.00;;
46751;SDS011;32497;48.936;9.270;2023-04-20T01:00:12;3.97;;;2.43;;
46751;SDS011;32497;48.936;9.270;2023-04-20T01:05:14;4.37;;;2.17;;
46751;SDS011;32497;48.936;9.270;2023-04-20T01:10:16;6.73;;;2.37;;
46751;SDS011;32497;48.936;9.270;2023-04-20T01:15:18;4.90;;;2.40;;
46751;SDS011;32497;48.936;9.270;2023-04-20T01:20:20;6.67;;;2.37;;
46751;SDS011;32497;48.936;9.270;2023-04-20T01:25:22;5.13;;;2.33;;
46751;SDS011;32497;48.936;9.270;2023-04-20T01:30:24;4.30;;;2.27;;
46751;SDS011;32497;48.936;9.270;2023-04-20T01:35:25;6.23;;;2.40;;
46751;SDS011;32497;48.936;9.270;2023-04-20T01:40:27;4.90;;;2.53;;
46751;SDS011;32497;48.936;9.270;2023-04-20T01:45:28;6.10;;;2.07;;
46751;SDS011;32497;48.936;9.270;2023-04-20T01:50:31;3.83;;;2.03;;
46751;SDS011;32497;48.936;9.270;2023-04-20T01:55:33;4.50;;;2.37;;
46751;SDS011;32497;48.936;9.270;2023-04-20T02:00:34;4.30;;;2.60;;
46751;SDS011;32497;48.936;9.270;2023-04-20T02:05:36;3.67;;;2.17;;
46751;SDS011;32497;48.936;9.270;2023-04-20T02:10:38;5.57;;;2.60;;
46751;SDS011;32497;48.936;9.270;2023-04-20T02:15:39;6.90;;;2.50;;
46751;SDS011;32497;48.936;9.270;2023-04-20T02:20:40;4.20;;;2.20;;
46751;SDS011;32497;48.936;9.270;2023-04-20T02:25:43;8.37;;;2.53;;
46751;SDS011;32497;48.936;9.270;2023-04-20T02:30:45;3.20;;;1.83;;
46751;SDS011;32497;48.936;9.270;2023-04-20T02:35:46;6.63;;;3.00;;
46751;SDS011;32497;48.936;9.270;2023-04-20T02:40:49;7.30;;;2.37;;
46751;SDS011;32497;48.936;9.270;2023-04-20T02:45:51;3.50;;;2.20;;
46751;SDS011;32497;48.936;9.270;2023-04-20T02:50:54;4.20;;;2.30;;
46751;SDS011;32497;48.936;9.270;2023-04-20T02:55:58;3.97;;;2.23;;
46751;SDS011;32497;48.936;9.270;2023-04-20T03:01:14;3.53;;;1.97;;
46751;SDS011;32497;48.936;9.270;2023-04-20T03:06:16;3.20;;;2.13;;
46751;SDS011;32497;48.936;9.270;2023-04-20T03:11:23;5.77;;;2.60;;
46751;SDS011;32497;48.936;9.270;2023-04-20T03:16:24;7.17;;;2.60;;
46751;SDS011;32497;48.936;9.270;2023-04-20T03:21:28;6.17;;;2.77;;
46751;SDS011;32497;48.936;9.270;2023-04-20T03:26:31;6.80;;;2.83;;
46751;SDS011;32497;48.936;9.270;2023-04-20T03:31:46;6.10;;;2.70;;
46751;SDS011;32497;48.936;9.270;2023-04-20T03:36:47;5.10;;;2.07;;
46751;SDS011;32497;48.936;9.270;2023-04-20T03:41:50;4.87;;;2.60;;
46751;SDS011;32497;48.936;9.270;2023-04-20T03:46:51;6.23;;;2.67;;
46751;SDS011;32497;48.936;9.270;2023-04-20T03:51:52;5.87;;;2.80;;
46751;SDS011;32497;48.936;9.270;2023-04-20T03:56:54;6.67;;;2.40;;
46751;SDS011;32497;48.936;9.270;2023-04-20T04:01:57;5.37;;;2.37;;
46751;SDS011;32497;48.936;9.270;2023-04-20T04:07:00;4.73;;;2.37;;
46751;SDS011;32497;48.936;9.270;2023-04-20T04:12:02;4.47;;;2.30;;
46751;SDS011;32497;48.936;9.270;2023-04-20T04:17:04;5.80;;;2.70;;
46751;SDS011;32497;48.936;9.270;2023-04-20T04:22:08;7.30;;;2.87;;
46751;SDS011;32497;48.936;9.270;2023-04-20T04:27:16;5.80;;;2.73;;
46751;SDS011;32497;48.936;9.270;2023-04-20T04:32:26;7.10;;;2.90;;
46751;SDS011;32497;48.936;9.270;2023-04-20T04:37:27;6.80;;;3.17;;
46751;SDS011;32497;48.936;9.270;2023-04-20T04:42:31;5.53;;;2.83;;
46751;SDS011;32497;48.936;9.270;2023-04-20T04:47:35;7.37;;;3.17;;
46751;SDS011;32497;48.936;9.270;2023-04-20T04:52:37;6.97;;;3.10;;
46751;SDS011;32497;48.936;9.270;2023-04-20T04:57:39;6.43;;;3.40;;
46751;SDS011;32497;48.936;9.270;2023-04-20T05:02:40;6.90;;;3.53;;
46751;SDS011;32497;48.936;9.270;2023-04-20T05:07:41;7.53;;;3.03;;
46751;SDS011;32497;48.936;9.270;2023-04-20T05:12:44;5.17;;;3.13;;
46751;SDS011;32497;48.936;9.270;2023-04-20T05:17:45;7.50;;;3.50;;
46751;SDS011;32497;48.936;9.270;2023-04-20T05:22:46;9.70;;;3.77;;
46751;SDS011;32497;48.936;9.270;2023-04-20T05:27:48;6.10;;;3.33;;
46751;SDS011;32497;48.936;9.270;2023-04-20T05:32:50;5.27;;;3.47;;
46751;SDS011;32497;48.936;9.270;2023-04-20T05:37:51;7.13;;;3.60;;
46751;SDS011;32497;48.936;9.270;2023-04-20T05:42:53;11.50;;;3.90;;
46751;SDS011;32497;48.936;9.270;2023-04-20T05:47:55;7.27;;;3.70;;
46751;SDS011;32497;48.936;9.270;2023-04-20T05:52:56;6.50;;;3.60;;
46751;SDS011;32497;48.936;9.270;2023-04-20T05:57:58;7.53;;;4.00;;
46751;SDS011;32497;48.936;9.270;2023-04-20T06:03:00;11.83;;;4.03;;
46751;SDS011;32497;48.936;9.270;2023-04-20T06:08:01;9.07;;;4.77;;
46751;SDS011;32497;48.936;9.270;2023-04-20T06:13:03;8.83;;;4.13;;
46751;SDS011;32497;48.936;9.270;2023-04-20T06:18:05;7.47;;;4.27;;
46751;SDS011;32497;48.936;9.270;2023-04-20T06:23:06;12.70;;;4.40;;
46751;SDS011;32497;48.936;9.270;2023-04-20T06:28:08;8.47;;;4.23;;
46751;SDS011;32497;48.936;9.270;2023-04-20T06:33:09;11.53;;;4.97;;
46751;SDS011;32497;48.936;9.270;2023-04-20T06:38:10;10.10;;;4.33;;
46751;SDS011;32497;48.936;9.270;2023-04-20T06:43:13;14.73;;;4.37;;
46751;SDS011;32497;48.936;9.270;2023-04-20T06:48:14;10.33;;;4.23;;
46751;SDS011;32497;48.936;9.270;2023-04-20T06:53:15;8.47;;;4.40;;
46751;SDS011;32497;48.936;9.270;2023-04-20T06:58:18;9.27;;;4.90;;
46751;SDS011;32497;48.936;9.270;2023-04-20T07:03:19;8.00;;;4.27;;
46751;SDS011;32497;48.936;9.270;2023-04-20T07:08:20;9.70;;;4.80;;
46751;SDS011;32497;48.936;9.270;2023-04-20T07:13:23;9.40;;;4.63;;
46751;SDS011;32497;48.936;9.270;2023-04-20T07:18:24;8.17;;;4.20;;
46751;SDS011;32497;48.936;9.270;2023-04-20T07:23:25;8.70;;;4.23;;
46751;SDS011;32497;48.936;9.270;2023-04-20T07:28:27;9.33;;;4.50;;
46751;SDS011;32497;48.936;9.270;2023-04-20T07:33:28;8.37;;;4.80;;
46751;SDS011;32497;48.936;9.270;2023-04-20T07:38:30;7.50;;;4.13;;
46751;SDS011;32497;48.936;9.270;2023-04-20T07:43:32;9.83;;;4.77;;
46751;SDS011;32497;48.936;9.270;2023-04-20T07:48:33;6.73;;;4.37;;
46751;SDS011;32497;48.936;9.270;2023-04-20T07:53:34;6.50;;;4.20;;
46751;SDS011;32497;48.936;9.270;2023-04-20T07:58:37;7.50;;;3.97;;
46751;SDS011;32497;48.936;9.270;2023-04-20T08:03:38;6.77;;;4.20;;
46751;SDS011;32497;48.936;9.270;2023-04-20T08:08:39;7.47;;;4.37;;
46751;SDS011;32497;48.936;9.270;2023-04-20T08:13:42;7.20;;;4.57;;
46751;SDS011;32497;48.936;9.270;2023-04-20T08:18:43;8.00;;;4.83;;
46751;SDS011;32497;48.936;9.270;2023-04-20T08:23:44;7.33;;;4.57;;
46751;SDS011;32497;48.936;9.270;2023-04-20T08:28:46;8.43;;;4.07;;
46751;SDS011;32497;48.936;9.270;2023-04-20T08:33:47;8.20;;;4.10;;
46751;SDS011;32497;48.936;9.270;2023-04-20T08:38:52;6.20;;;3.70;;
46751;SDS011;32497;48.936;9.270;2023-04-20T08:43:56;6.63;;;3.90;;
46751;SDS011;32497;48.936;9.270;2023-04-20T08:48:57;7.87;;;4.40;;
46751;SDS011;32497;48.936;9.270;2023-04-20T08:54:02;6.53;;;3.80;;
46751;SDS011;32497;48.936;9.270;2023-04-20T08:59:05;8.63;;;4.47;;
46751;SDS011;32497;48.936;9.270;2023-04-20T09:04:16;6.93;;;4.00;;
46751;SDS011;32497;48.936;9.270;2023-04-20T09:09:19;9.17;;;4.50;;
46751;SDS011;32497;48.936;9.270;2023-04-20T09:14:23;7.73;;;3.37;;
46751;SDS011;32497;48.936;9.270;2023-04-20T09:19:24;7.60;;;4.13;;
46751;SDS011;32497;48.936;9.270;2023-04-20T09:24:32;6.83;;;3.63;;
46751;SDS011;32497;48.936;9.270;2023-04-20T09:29:59;6.90;;;4.30;;
46751;SDS011;32497;48.936;9.270;2023-04-20T09:35:01;5.43;;;3.77;;
46751;SDS011;32497;48.936;9.270;2023-04-20T09:40:02;7.20;;;4.00;;
46751;SDS011;32497;48.936;9.270;2023-04-20T09:45:09;7.03;;;4.33;;
46751;SDS011;32497;48.936;9.270;2023-04-20T09:50:16;7.07;;;4.43;;
46751;SDS011;32497;48.936;9.270;2023-04-20T09:55:17;6.67;;;3.70;;
46751;SDS011;32497;48.936;9.270;2023-04-20T10:00:21;7.37;;;4.07;;
46751;SDS011;32497;48.936;9.270;2023-04-20T10:05:31;7.17;;;4.20;;
46751;SDS011;32497;48.936;9.270;2023-04-20T10:10:41;6.60;;;3.93;;
46751;SDS011;32497;48.936;9.270;2023-04-20T10:15:45;6.27;;;3.90;;
46751;SDS011;32497;48.936;9.270;2023-04-20T10:20:47;6.00;;;3.60;;
46751;SDS011;32497;48.936;9.270;2023-04-20T10:25:54;4.77;;;3.33;;
46751;SDS011;32497;48.936;9.270;2023-04-20T10:30:57;5.93;;;3.50;;
46751;SDS011;32497;48.936;9.270;2023-04-20T10:35:58;5.27;;;3.50;;
46751;SDS011;32497;48.936;9.270;2023-04-20T10:41:04;5.27;;;3.47;;
46751;SDS011;32497;48.936;9.270;2023-04-20T10:46:13;6.83;;;3.70;;
46751;SDS011;32497;48.936;9.270;2023-04-20T10:51:15;5.70;;;3.67;;
46751;SDS011;32497;48.936;9.270;2023-04-20T10:56:17;6.23;;;3.53;;
46751;SDS011;32497;48.936;9.270;2023-04-20T11:01:19;6.50;;;3.33;;
46751;SDS011;32497;48.936;9.270;2023-04-20T11:06:21;5.47;;;2.93;;
46751;SDS011;32497;48.936;9.270;2023-04-20T11:11:22;5.70;;;3.50;;
46751;SDS011;32497;48.936;9.270;2023-04-20T11:16:26;5.47;;;3.50;;
46751;SDS011;32497;48.936;9.270;2023-04-20T11:21:34;6.13;;;3.73;;
46751;SDS011;32497;48.936;9.270;2023-04-20T11:26:36;6.40;;;4.10;;
46751;SDS011;32497;48.936;9.270;2023-04-20T11:31:39;6.53;;;3.63;;
46751;SDS011;32497;48.936;9.270;2023-04-20T11:36:40;6.10;;;3.87;;
46751;SDS011;32497;48.936;9.270;2023-04-20T11:41:42;7.80;;;4.40;;
46751;SDS011;32497;48.936;9.270;2023-04-20T11:46:44;7.60;;;3.80;;
46751;SDS011;32497;48.936;9.270;2023-04-20T11:51:46;7.47;;;4.83;;
46751;SDS011;32497;48.936;9.270;2023-04-20T11:56:47;6.50;;;4.33;;
46751;SDS011;32497;48.936;9.270;2023-04-20T12:01:50;6.60;;;4.27;;
46751;SDS011;32497;48.936;9.270;2023-04-20T12:06:51;6.33;;;4.00;;
46751;SDS011;32497;48.936;9.270;2023-04-20T12:11:52;6.33;;;4.20;;
46751;SDS011;32497;48.936;9.270;2023-04-20T12:16:54;6.07;;;3.80;;
46751;SDS011;32497;48.936;9.270;2023-04-20T12:21:55;7.43;;;4.50;;
46751;SDS011;32497;48.936;9.270;2023-04-20T12:26:56;6.47;;;4.00;;
46751;SDS011;32497;48.936;9.270;2023-04-20T12:31:59;6.57;;;3.67;;
46751;SDS011;32497;48.936;9.270;2023-04-20T12:37:00;6.40;;;4.10;;
46751;SDS011;32497;48.936;9.270;2023-04-20T12:42:01;6.90;;;3.50;;
46751;SDS011;32497;48.936;9.270;2023-04-20T12:47:03;9.57;;;4.30;;
46751;SDS011;32497;48.936;9.270;2023-04-20T12:52:04;28.47;;;9.33;;
46751;SDS011;32497;48.936;9.270;2023-04-20T12:57:05;6.10;;;4.27;;
46751;SDS011;32497;48.936;9.270;2023-04-20T13:02:08;5.77;;;3.57;;
46751;SDS011;32497;48.936;9.270;2023-04-20T13:07:10;6.27;;;3.57;;
46751;SDS011;32497;48.936;9.270;2023-04-20T13:12:12;5.27;;;3.30;;
46751;SDS011;32497;48.936;9.270;2023-04-20T13:17:14;7.17;;;3.40;;
46751;SDS011;32497;48.936;9.270;2023-04-20T13:22:16;4.63;;;3.30;;
46751;SDS011;32497;48.936;9.270;2023-04-20T13:27:17;8.17;;;3.77;;
46751;SDS011;32497;48.936;9.270;2023-04-20T13:32:19;6.63;;;3.63;;
46751;SDS011;32497;48.936;9.270;2023-04-20T13:37:20;5.43;;;3.50;;
46751;SDS011;32497;48.936;9.270;2023-04-20T13:42:21;6.70;;;3.50;;
46751;SDS011;32497;48.936;9.270;2023-04-20T13:47:24;5.27;;;3.27;;
46751;SDS011;32497;48.936;9.270;2023-04-20T13:52:25;5.90;;;3.50;;
46751;SDS011;32497;48.936;9.270;2023-04-20T13:57:26;7.27;;;4.00;;
46751;SDS011;32497;48.936;9.270;2023-04-20T14:02:29;7.83;;;3.90;;
46751;SDS011;32497;48.936;9.270;2023-04-20T14:07:30;6.60;;;3.40;;
46751;SDS011;32497;48.936;9.270;2023-04-20T14:12:31;5.30;;;3.40;;
46751;SDS011;32497;48.936;9.270;2023-04-20T14:17:34;5.10;;;3.27;;
46751;SDS011;32497;48.936;9.270;2023-04-20T14:22:35;5.90;;;3.50;;
46751;SDS011;32497;48.936;9.270;2023-04-20T14:27:36;5.27;;;3.40;;
46751;SDS011;32497;48.936;9.270;2023-04-20T14:32:38;4.53;;;3.03;;
46751;SDS011;32497;48.936;9.270;2023-04-20T14:37:40;5.37;;;3.07;;
46751;SDS011;32497;48.936;9.270;2023-04-20T14:42:41;5.10;;;3.17;;
46751;SDS011;32497;48.936;9.270;2023-04-20T14:47:43;4.80;;;3.30;;
46751;SDS011;32497;48.936;9.270;2023-04-20T14:52:44;5.53;;;3.40;;
46751;SDS011;32497;48.936;9.270;2023-04-20T14:57:45;6.77;;;3.87;;
46751;SDS011;32497;48.936;9.270;2023-04-20T15:02:48;6.40;;;3.80;;
46751;SDS011;32497;48.936;9.270;2023-04-20T15:07:49;9.50;;;5.03;;
46751;SDS011;32497;48.936;9.270;2023-04-20T15:12:50;10.13;;;6.57;;
46751;SDS011;32497;48.936;9.270;2023-04-20T15:17:53;7.13;;;4.17;;
46751;SDS011;32497;48.936;9.270;2023-04-20T15:22:54;8.00;;;4.47;;
46751;SDS011;32497;48.936;9.270;2023-04-20T15:27:55;5.70;;;3.73;;
46751;SDS011;32497;48.936;9.270;2023-04-20T15:32:58;5.93;;;4.03;;
46751;SDS011;32497;48.936;9.270;2023-04-20T15:37:59;7.63;;;4.60;;
46751;SDS011;32497;48.936;9.270;2023-04-20T15:43:00;6.27;;;3.97;;
46751;SDS011;32497;48.936;9.270;2023-04-20T15:48:02;6.50;;;4.10;;
46751;SDS011;32497;48.936;9.270;2023-04-20T15:53:04;7.20;;;3.80;;
46751;SDS011;32497;48.936;9.270;2023-04-20T15:58:05;6.27;;;3.73;;
46751;SDS011;32497;48.936;9.270;2023-04-20T16:03:07;6.77;;;4.00;;
46751;SDS011;32497;48.936;9.270;2023-04-20T16:08:08;7.37;;;4.00;;
46751;SDS011;32497;48.936;9.270;2023-04-20T16:13:09;6.23;;;3.70;;
46751;SDS011;32497;48.936;9.270;2023-04-20T16:18:12;7.00;;;3.77;;
46751;SDS011;32497;48.936;9.270;2023-04-20T16:23:13;6.83;;;4.00;;
46751;SDS011;32497;48.936;9.270;2023-04-20T16:28:14;5.80;;;3.47;;
46751;SDS011;32497;48.936;9.270;2023-04-20T16:33:17;7.33;;;4.03;;
46751;SDS011;32497;48.936;9.270;2023-04-20T16:38:18;7.93;;;4.37;;
46751;SDS011;32497;48.936;9.270;2023-04-20T16:43:19;8.00;;;4.60;;
46751;SDS011;32497;48.936;9.270;2023-04-20T16:48:21;8.17;;;5.13;;
46751;SDS011;32497;48.936;9.270;2023-04-20T16:53:22;8.13;;;5.60;;
46751;SDS011;32497;48.936;9.270;2023-04-20T16:58:24;8.40;;;4.97;;
46751;SDS011;32497;48.936;9.270;2023-04-20T17:03:26;9.30;;;5.77;;
46751;SDS011;32497;48.936;9.270;2023-04-20T17:08:27;10.93;;;5.80;;
46751;SDS011;32497;48.936;9.270;2023-04-20T17:13:28;10.13;;;6.03;;
46751;SDS011;32497;48.936;9.270;2023-04-20T17:18:31;9.93;;;5.70;;
46751;SDS011;32497;48.936;9.270;2023-04-20T17:23:32;10.53;;;6.13;;
46751;SDS011;32497;48.936;9.270;2023-04-20T17:28:33;11.57;;;6.33;;
46751;SDS011;32497;48.936;9.270;2023-04-20T17:33:36;11.40;;;6.47;;
46751;SDS011;32497;48.936;9.270;2023-04-20T17:38:37;10.63;;;6.33;;
46751;SDS011;32497;48.936;9.270;2023-04-20T17:43:38;10.63;;;6.00;;
46751;SDS011;32497;48.936;9.270;2023-04-20T17:48:41;11.13;;;6.47;;
46751;SDS011;32497;48.936;9.270;2023-04-20T17:53:42;11.33;;;6.17;;
46751;SDS011;32497;48.936;9.270;2023-04-20T17:58:43;9.90;;;5.90;;
46751;SDS011;32497;48.936;9.270;2023-04-20T18:03:46;14.33;;;7.37;;
46751;SDS011;32497;48.936;9.270;2023-04-20T18:08:47;13.07;;;7.27;;
46751;SDS011;32497;48.936;9.270;2023-04-20T18:13:48;15.60;;;7.40;;
46751;SDS011;32497;48.936;9.270;2023-04-20T18:18:51;15.67;;;7.63;;
46751;SDS011;32497;48.936;9.270;2023-04-20T18:23:52;14.13;;;7.97;;
46751;SDS011;32497;48.936;9.270;2023-04-20T18:28:53;11.73;;;6.37;;
46751;SDS011;32497;48.936;9.270;2023-04-20T18:33:55;11.47;;;7.00;;
46751;SDS011;32497;48.936;9.270;2023-04-20T18:38:56;12.13;;;6.90;;
46751;SDS011;32497;48.936;9.270;2023-04-20T18:43:57;12.83;;;7.47;;
46751;SDS011;32497;48.936;9.270;2023-04-20T18:49:00;11.80;;;6.83;;
46751;SDS011;32497;48.936;9.270;2023-04-20T18:54:01;11.00;;;6.63;;
46751;SDS011;32497;48.936;9.270;2023-04-20T18:59:02;10.07;;;5.67;;
46751;SDS011;32497;48.936;9.270;2023-04-20T19:04:05;9.97;;;5.83;;
46751;SDS011;32497;48.936;9.270;2023-04-20T19:09:06;10.10;;;6.10;;
46751;SDS011;32497;48.936;9.270;2023-04-20T19:14:07;11.90;;;6.23;;
46751;SDS011;32497;48.936;9.270;2023-04-20T19:19:09;9.90;;;5.37;;
46751;SDS011;32497;48.936;9.270;2023-04-20T19:24:11;10.77;;;5.73;;
46751;SDS011;32497;48.936;9.270;2023-04-20T19:29:12;10.43;;;5.60;;
46751;SDS011;32497;48.936;9.270;2023-04-20T19:34:14;9.47;;;5.70;;
46751;SDS011;32497;48.936;9.270;2023-04-20T19:39:15;9.10;;;5.67;;
46751;SDS011;32497;48.936;9.270;2023-04-20T19:44:17;12.20;;;6.70;;
46751;SDS011;32497;48.936;9.270;2023-04-20T19:49:19;11.27;;;6.63;;
46751;SDS011;32497;48.936;9.270;2023-04-20T19:54:21;14.80;;;7.73;;
46751;SDS011;32497;48.936;9.270;2023-04-20T19:59:22;13.90;;;7.57;;
46751;SDS011;32497;48.936;9.270;2023-04-20T20:04:24;12.67;;;7.17;;
46751;SDS011;32497;48.936;9.270;2023-04-20T20:09:25;13.90;;;7.90;;
46751;SDS011;32497;48.936;9.270;2023-04-20T20:14:27;14.43;;;7.57;;
46751;SDS011;32497;48.936;9.270;2023-04-20T20:19:29;12.97;;;8.03;;
46751;SDS011;32497;48.936;9.270;2023-04-20T20:24:30;14.20;;;7.67;;
46751;SDS011;32497;48.936;9.270;2023-04-20T20:29:43;13.37;;;7.23;;
46751;SDS011;32497;48.936;9.270;2023-04-20T20:40:12;14.47;;;7.87;;
46751;SDS011;32497;48.936;9.270;2023-04-20T20:45:13;16.23;;;8.73;;
46751;SDS011;32497;48.936;9.270;2023-04-20T20:50:15;14.90;;;7.73;;
46751;SDS011;32497;48.936;9.270;2023-04-20T20:55:40;15.47;;;8.83;;
46751;SDS011;32497;48.936;9.270;2023-04-20T21:00:41;17.67;;;9.23;;
46751;SDS011;32497;48.936;9.270;2023-04-20T21:05:59;16.33;;;9.00;;
46751;SDS011;32497;48.936;9.270;2023-04-20T21:11:03;14.97;;;9.43;;
46751;SDS011;32497;48.936;9.270;2023-04-20T21:16:19;17.10;;;9.97;;
46751;SDS011;32497;48.936;9.270;2023-04-20T21:21:31;17.30;;;8.83;;
46751;SDS011;32497;48.936;9.270;2023-04-20T21:32:01;20.27;;;9.90;;
46751;SDS011;32497;48.936;9.270;2023-04-20T21:37:07;18.67;;;10.17;;
46751;SDS011;32497;48.936;9.270;2023-04-20T21:42:11;19.30;;;9.43;;
46751;SDS011;32497;48.936;9.270;2023-04-20T21:52:42;15.07;;;8.07;;
46751;SDS011;32497;48.936;9.270;2023-04-20T21:57:49;20.10;;;8.67;;
46751;SDS011;32497;48.936;9.270;2023-04-20T22:08:27;15.67;;;7.80;;
46751;SDS011;32497;48.936;9.270;2023-04-20T22:13:43;18.23;;;7.83;;
46751;SDS011;32497;48.936;9.270;2023-04-20T22:18:47;14.73;;;7.30;;
46751;SDS011;32497;48.936;9.270;2023-04-20T22:34:55;16.07;;;7.23;;
46751;SDS011;32497;48.936;9.270;2023-04-20T22:39:58;13.60;;;6.90;;
46751;SDS011;32497;48.936;9.270;2023-04-20T22:45:02;14.03;;;7.00;;
46751;SDS011;32497;48.936;9.270;2023-04-20T22:51:53;15.10;;;7.50;;
46751;SDS011;32497;48.936;9.270;2023-04-20T23:01:29;18.63;;;8.13;;
46751;SDS011;32497;48.936;9.270;2023-04-20T23:06:30;17.53;;;8.30;;
46751;SDS011;32497;48.936;9.270;2023-04-20T23:11:35;17.57;;;8.37;;
46751;SDS011;32497;48.936;9.270;2023-04-20T23:16:39;19.03;;;9.07;;
46751;SDS011;32497;48.936;9.270;2023-04-20T23:21:40;19.67;;;9.23;;
46751;SDS011;32497;48.936;9.270;2023-04-20T23:26:51;17.63;;;8.60;;
46751;SDS011;32497;48.936;9.270;2023-04-20T23:31:52;17.93;;;8.43;;
46751;SDS011;32497;48.936;9.270;2023-04-20T23:37:05;18.10;;;8.37;;
46751;SDS011;32497;48.936;9.270;2023-04-20T23:42:08;17.17;;;8.17;;
46751;SDS011;32497;48.936;9.270;2023-04-20T23:47:18;16.23;;;8.17;;
46751;SDS011;32497;48.936;9.270;2023-04-20T23:57:46;12.23;;;6.33;;
